Time;durP1;ratioP1;P1;durP2;ratioP2;P2;SDS_P1;SDS_P2;PMS_P1;PMS_P2;Temp;Humidity;BMP_temperature;BMP_pressure;BME280_temperature;BME280_humidity;BME280_pressure;Samples;Min_cycle;Max_cycle;Signal;HPM_P1;HPM_P2
2023/10/11 00:01:58;;;;;;;6.77;4.80;;;;;;;18.06;81.69;100512.34;5059147;28;20252;-81
2023/10/11 00:04:24;;;;;;;6.73;4.60;;;;;;;18.06;80.80;100522.91;5059106;28;20214;-81
2023/10/11 00:06:51;;;;;;;8.73;4.33;;;;;;;18.09;78.74;100569.44;5058712;28;20209;-81
2023/10/11 00:09:18;;;;;;;7.40;4.57;;;;;;;18.03;81.07;100538.88;5059346;28;20601;-82
2023/10/11 00:11:45;;;;;;;10.60;5.63;;;;;;;17.99;81.30;100544.41;5058919;28;20228;-81
2023/10/11 00:14:13;;;;;;;5.87;4.57;;;;;;;18.03;79.95;100530.13;5058957;28;20205;-82
2023/10/11 00:16:40;;;;;;;10.97;4.23;;;;;;;17.96;80.87;100540.13;5058378;28;20209;-81
2023/10/11 00:19:09;;;;;;;7.67;5.27;;;;;;;17.96;82.31;100497.03;5058587;28;20233;-82
2023/10/11 00:21:40;;;;;;;4.70;3.93;;;;;;;17.93;81.17;100499.81;5058384;28;20222;-82
2023/10/11 00:24:07;;;;;;;7.47;4.90;;;;;;;17.93;78.92;100537.63;5058834;28;20672;-82
2023/10/11 00:26:37;;;;;;;7.93;4.67;;;;;;;17.91;77.29;100573.81;5058644;28;20213;-81
2023/10/11 00:29:04;;;;;;;5.83;5.10;;;;;;;17.97;76.44;100596.44;5058179;28;20289;-82
2023/10/11 00:31:33;;;;;;;5.80;5.00;;;;;;;17.94;77.03;100612.44;5058451;28;20237;-81
2023/10/11 00:34:00;;;;;;;5.80;5.20;;;;;;;17.97;77.39;100605.22;5058675;28;20664;-81
2023/10/11 00:36:29;;;;;;;5.90;4.67;;;;;;;17.98;76.79;100614.03;5059005;28;20210;-81
2023/10/11 00:38:56;;;;;;;8.77;5.17;;;;;;;17.94;77.07;100613.31;5058879;28;20211;-82
2023/10/11 00:41:25;;;;;;;4.90;4.30;;;;;;;17.93;78.21;100586.97;5058091;28;20231;-81
2023/10/11 00:43:53;;;;;;;7.43;4.37;;;;;;;17.91;79.06;100565.91;5057714;28;20229;-81
2023/10/11 00:46:22;;;;;;;6.27;4.33;;;;;;;17.83;79.27;100545.13;5058123;28;20205;-81
2023/10/11 00:48:53;;;;;;;12.80;5.67;;;;;;;17.86;79.35;100544.16;5058464;28;20201;-81
2023/10/11 00:51:19;;;;;;;7.93;4.20;;;;;;;17.85;80.24;100518.66;5058436;28;20234;-82
2023/10/11 00:53:47;;;;;;;7.87;4.20;;;;;;;17.78;81.08;100491.66;5058279;28;20664;-81
2023/10/11 00:56:14;;;;;;;7.63;4.60;;;;;;;17.74;80.86;100482.19;5058408;28;20227;-81
2023/10/11 00:58:40;;;;;;;10.47;4.70;;;;;;;17.67;82.22;100451.72;5057607;28;20205;-81
2023/10/11 01:01:09;;;;;;;10.37;4.33;;;;;;;17.58;83.57;100429.28;5058175;28;20224;-81
2023/10/11 01:03:37;;;;;;;6.80;4.83;;;;;;;17.57;83.29;100410.88;5058094;28;20304;-81
2023/10/11 01:06:04;;;;;;;6.90;4.63;;;;;;;17.55;83.52;100397.72;5058600;28;20807;-81
2023/10/11 01:08:38;;;;;;;8.20;4.63;;;;;;;17.40;83.42;100380.88;5058070;28;20237;-81
2023/10/11 01:11:07;;;;;;;7.03;4.60;;;;;;;17.38;83.96;100374.81;5057892;28;20282;-81
2023/10/11 01:13:34;;;;;;;8.03;4.40;;;;;;;17.38;83.20;100381.84;5060369;28;20736;-81
2023/10/11 01:16:00;;;;;;;7.87;4.77;;;;;;;17.37;83.77;100374.88;5067867;28;20208;-81
2023/10/11 01:18:28;;;;;;;6.13;4.43;;;;;;;17.38;82.71;100392.41;5057592;28;20236;-82
2023/10/11 01:20:56;;;;;;;5.23;4.73;;;;;;;17.38;82.75;100401.19;5057872;28;20226;-81
2023/10/11 01:23:22;;;;;;;8.47;4.47;;;;;;;17.42;82.51;100405.41;5057665;28;20235;-82
2023/10/11 01:25:49;;;;;;;5.83;4.23;;;;;;;17.29;82.59;100408.69;5058270;28;20208;-82
2023/10/11 01:28:15;;;;;;;6.20;4.50;;;;;;;17.30;80.06;100431.50;5057008;28;20212;-81
2023/10/11 01:30:41;;;;;;;4.27;3.87;;;;;;;17.34;78.11;100480.56;5049522;28;20205;-81
2023/10/11 01:33:08;;;;;;;7.93;4.43;;;;;;;17.34;76.87;100517.50;5057341;28;20205;-82
2023/10/11 01:35:36;;;;;;;5.37;4.87;;;;;;;17.40;75.82;100557.69;5057589;28;20584;-81
2023/10/11 01:38:06;;;;;;;5.87;4.30;;;;;;;17.50;74.72;100591.53;5057084;28;20201;-81
2023/10/11 01:40:33;;;;;;;4.43;4.00;;;;;;;17.59;73.88;100631.59;5057749;28;20209;-81
2023/10/11 01:43:00;;;;;;;8.23;4.43;;;;;;;17.70;71.19;100693.59;5057142;28;20224;-81
2023/10/11 01:45:26;;;;;;;4.40;4.00;;;;;;;17.83;71.49;100716.78;5057284;28;20239;-81
2023/10/11 01:47:56;;;;;;;6.50;3.83;;;;;;;17.91;70.83;100744.63;5057645;28;20204;-81
2023/10/11 01:50:24;;;;;;;5.80;4.07;;;;;;;17.95;68.12;100799.91;5057513;28;20215;-81
2023/10/11 01:52:51;;;;;;;4.17;3.53;;;;;;;18.10;69.11;100819.50;5057137;28;20292;-81
2023/10/11 01:55:19;;;;;;;5.50;4.40;;;;;;;18.13;68.75;100832.56;5058027;28;20205;-81
2023/10/11 01:57:48;;;;;;;10.07;4.47;;;;;;;18.20;68.85;100852.53;5057184;28;20206;-82
2023/10/11 02:00:15;;;;;;;5.27;4.00;;;;;;;18.14;69.31;100836.09;5057730;28;20201;-82
2023/10/11 02:02:47;;;;;;;4.87;3.67;;;;;;;18.20;67.43;100884.22;5056815;28;20225;-82
2023/10/11 02:05:14;;;;;;;5.33;3.70;;;;;;;18.24;67.65;100880.53;5057177;28;20259;-81
2023/10/11 02:07:40;;;;;;;6.17;4.17;;;;;;;18.28;67.56;100872.47;5056830;28;20198;-81
2023/10/11 02:10:11;;;;;;;4.13;3.73;;;;;;;18.28;67.84;100875.13;5057781;28;20400;-81
2023/10/11 02:12:44;;;;;;;4.90;4.03;;;;;;;18.30;67.83;100879.41;5057123;28;20221;-80
2023/10/11 02:15:12;;;;;;;4.97;4.07;;;;;;;18.28;67.94;100867.19;5057058;28;20205;-82
2023/10/11 02:17:39;;;;;;;5.60;4.00;;;;;;;18.30;67.13;100876.75;5057167;28;20672;-81
2023/10/11 02:20:13;;;;;;;5.30;3.90;;;;;;;18.35;67.22;100885.31;5056765;28;20209;-82
2023/10/11 02:22:44;;;;;;;4.37;3.90;;;;;;;18.28;68.26;100868.03;5056160;28;20236;-82
2023/10/11 02:25:14;;;;;;;4.33;3.97;;;;;;;18.25;67.71;100868.16;5057411;28;20631;-82
2023/10/11 02:27:42;;;;;;;6.33;4.20;;;;;;;18.25;68.33;100857.59;5056331;28;20211;-80
2023/10/11 02:30:13;;;;;;;5.00;3.80;;;;;;;18.24;68.86;100837.41;5057473;28;20202;-81
2023/10/11 02:32:41;;;;;;;5.97;3.40;;;;;;;18.21;67.94;100854.22;5057082;28;20229;-82
2023/10/11 02:35:12;;;;;;;4.77;3.87;;;;;;;18.12;66.29;100864.38;5057014;28;20288;-81
2023/10/11 02:37:39;;;;;;;5.47;4.20;;;;;;;18.20;67.42;100886.88;5056547;28;20634;-81
2023/10/11 02:40:08;;;;;;;11.00;4.03;;;;;;;18.19;68.29;100847.28;5056713;28;20592;-81
2023/10/11 02:42:36;;;;;;;4.73;3.90;;;;;;;18.13;67.97;100845.78;5056175;28;20706;-82
2023/10/11 02:45:06;;;;;;;7.20;4.80;;;;;;;18.14;68.71;100830.81;5056579;28;20240;-81
2023/10/11 02:47:35;;;;;;;5.10;3.70;;;;;;;18.14;71.03;100791.19;5057007;28;20232;-81
2023/10/11 02:50:06;;;;;;;5.90;3.40;;;;;;;18.05;68.54;100795.06;5056279;28;20690;-81
2023/10/11 02:52:36;;;;;;;8.30;4.13;;;;;;;18.04;70.53;100794.22;5056797;28;20236;-81
2023/10/11 02:55:11;;;;;;;7.73;4.20;;;;;;;18.04;71.38;100762.50;5070848;28;20228;-80
2023/10/11 02:57:40;;;;;;;4.63;3.70;;;;;;;17.91;77.25;100618.72;5072474;28;20212;-81
2023/10/11 03:00:21;;;;;;;5.20;3.80;;;;;;;17.71;80.19;100519.28;5073239;28;20232;-80
2023/10/11 03:02:53;;;;;;;9.67;4.33;;;;;;;17.68;80.97;100461.38;5072989;28;20239;-80
2023/10/11 03:05:20;;;;;;;7.67;4.13;;;;;;;17.72;81.43;100419.81;5070880;28;20212;-81
2023/10/11 03:07:47;;;;;;;6.13;4.30;;;;;;;17.70;81.68;100406.72;5056144;28;20215;-81
2023/10/11 03:10:13;;;;;;;8.23;4.70;;;;;;;17.63;80.41;100440.44;5057325;28;20766;-81
2023/10/11 03:12:42;;;;;;;5.37;4.60;;;;;;;17.61;71.81;100539.13;5059008;28;20237;-80
2023/10/11 03:15:11;;;;;;;5.30;3.53;;;;;;;17.76;72.99;100612.34;5060644;28;20198;-81
2023/10/11 03:17:41;;;;;;;5.30;4.37;;;;;;;17.78;75.45;100618.41;5060302;28;20631;-81
2023/10/11 03:20:24;;;;;;;5.50;3.80;;;;;;;17.70;79.61;100514.06;5060258;28;20223;-81
2023/10/11 03:22:51;;;;;;;8.13;4.30;;;;;;;17.68;79.75;100461.38;5059871;28;20232;-81
2023/10/11 03:25:19;;;;;;;7.50;4.20;;;;;;;17.47;71.86;100514.22;5060078;28;20205;-82
2023/10/11 03:27:49;;;;;;;5.13;3.90;;;;;;;17.64;75.07;100583.84;5059698;28;20240;-81
2023/10/11 03:30:21;;;;;;;8.47;3.80;;;;;;;17.63;75.01;100567.16;5059591;28;20213;-81
2023/10/11 03:32:49;;;;;;;5.80;4.17;;;;;;;17.73;77.88;100527.13;5059653;28;20222;-81
2023/10/11 03:35:18;;;;;;;5.40;4.10;;;;;;;17.76;77.84;100492.66;5059533;28;20236;-81
2023/10/11 03:37:57;;;;;;;7.70;4.40;;;;;;;17.73;79.50;100471.69;5059108;28;20235;-82
2023/10/11 03:40:34;;;;;;;5.23;4.10;;;;;;;17.73;80.15;100425.00;5059556;28;20204;-81
2023/10/11 03:43:03;;;;;;;9.47;3.97;;;;;;;17.62;81.68;100398.28;5059044;28;20239;-81
2023/10/11 03:45:34;;;;;;;5.40;4.73;;;;;;;17.62;81.32;100377.16;5059688;28;20216;-81
2023/10/11 03:48:09;;;;;;;7.13;4.33;;;;;;;17.42;78.33;100431.78;5059656;28;20247;-81
2023/10/11 03:50:36;;;;;;;4.57;4.10;;;;;;;17.54;80.08;100403.06;5059664;28;20208;-81
2023/10/11 03:53:10;;;;;;;5.37;4.07;;;;;;;17.55;82.02;100357.28;5059114;28;20223;-81
2023/10/11 03:55:45;;;;;;;6.93;3.80;;;;;;;17.42;82.07;100352.63;5059358;28;20205;-81
2023/10/11 03:58:11;;;;;;;4.77;4.27;;;;;;;17.47;82.39;100320.72;5058332;28;20208;-81
2023/10/11 04:00:46;;;;;;;4.33;3.93;;;;;;;17.37;82.50;100319.47;5059474;28;20215;-80
2023/10/11 04:03:14;;;;;;;5.97;4.10;;;;;;;17.45;82.69;100310.22;5058786;28;20227;-81
2023/10/11 04:05:40;;;;;;;11.57;4.83;;;;;;;17.47;83.01;100305.72;5059343;28;20202;-81
2023/10/11 04:08:11;;;;;;;10.10;4.27;;;;;;;17.34;82.17;100315.19;5058664;28;20287;-82
2023/10/11 04:10:39;;;;;;;8.67;4.17;;;;;;;17.32;82.84;100311.75;5058709;28;20280;-81
2023/10/11 04:13:09;;;;;;;4.83;4.30;;;;;;;17.32;82.55;100319.69;5058828;28;20219;-81
2023/10/11 04:15:40;;;;;;;5.63;4.50;;;;;;;17.21;80.58;100346.59;5058649;28;20212;-81
2023/10/11 04:18:15;;;;;;;7.43;3.63;;;;;;;17.27;80.04;100370.03;5058590;28;20230;-81
2023/10/11 04:20:51;;;;;;;5.80;4.20;;;;;;;17.30;76.83;100431.50;5058197;28;20213;-81
2023/10/11 04:23:24;;;;;;;8.30;4.73;;;;;;;17.41;79.93;100410.75;5058634;28;20229;-81
2023/10/11 04:25:50;;;;;;;5.43;3.63;;;;;;;17.36;79.50;100407.47;5059158;28;20266;-81
2023/10/11 04:28:16;;;;;;;10.13;5.23;;;;;;;17.39;79.45;100402.91;5057460;28;20231;-81
2023/10/11 04:30:44;;;;;;;5.10;3.63;;;;;;;17.42;78.93;100410.69;5058774;28;20667;-81
2023/10/11 04:33:12;;;;;;;7.53;4.50;;;;;;;17.41;79.38;100408.97;5059327;28;20244;-81
2023/10/11 04:35:42;;;;;;;4.37;3.87;;;;;;;17.38;74.90;100482.13;5059287;28;20216;-81
2023/10/11 04:38:11;;;;;;;7.93;4.20;;;;;;;17.53;74.60;100552.69;5059167;28;20208;-80
2023/10/11 04:40:42;;;;;;;5.50;4.37;;;;;;;17.62;75.65;100520.59;5058061;28;20315;-80
2023/10/11 04:43:20;;;;;;;4.47;4.07;;;;;;;17.66;76.49;100508.09;5057847;28;20259;-81
2023/10/11 04:45:47;;;;;;;5.90;4.60;;;;;;;17.66;77.71;100479.06;5058066;28;20208;-80
2023/10/11 04:48:18;;;;;;;7.47;4.50;;;;;;;17.56;76.20;100489.19;5058145;28;20213;-81
2023/10/11 04:50:47;;;;;;;4.80;4.27;;;;;;;17.63;75.70;100490.59;5058531;28;20292;-81
2023/10/11 04:53:18;;;;;;;5.53;4.03;;;;;;;17.63;76.04;100501.16;5057423;28;20211;-81
2023/10/11 04:55:47;;;;;;;6.30;4.43;;;;;;;17.61;77.00;100481.91;5058127;28;20202;-81
2023/10/11 04:58:38;;;;;;;5.73;4.53;;;;;;;17.62;75.64;100490.66;5058054;28;20579;-81
2023/10/11 05:01:08;;;;;;;10.73;4.63;;;;;;;17.64;75.86;100504.66;5051103;28;20717;-81
2023/10/11 05:03:38;;;;;;;5.33;4.40;;;;;;;17.63;72.27;100537.28;5057853;28;20221;-81
2023/10/11 05:06:13;;;;;;;7.10;3.83;;;;;;;17.72;71.21;100594.06;5058566;28;20816;-81
2023/10/11 05:08:51;;;;;;;7.83;4.30;;;;;;;17.75;72.21;100600.06;5058449;28;20208;-81
2023/10/11 05:11:31;;;;;;;5.60;3.63;;;;;;;17.84;72.37;100598.81;5058230;28;20259;-81
2023/10/11 05:14:07;;;;;;;5.60;4.20;;;;;;;17.79;72.10;100591.06;5049876;28;20201;-80
2023/10/11 05:16:37;;;;;;;4.53;3.80;;;;;;;17.89;70.66;100646.13;5057464;28;20230;-80
2023/10/11 05:19:06;;;;;;;4.87;4.33;;;;;;;17.91;70.19;100655.69;5057069;28;20690;-79
2023/10/11 05:21:38;;;;;;;6.03;3.93;;;;;;;17.95;70.77;100659.91;5057890;28;20229;-80
2023/10/11 05:24:27;;;;;;;5.20;4.07;;;;;;;17.97;70.88;100660.69;5050044;28;20225;-80
2023/10/11 05:27:03;;;;;;;7.73;4.10;;;;;;;17.92;71.15;100649.50;5058047;28;20298;-79
2023/10/11 05:29:32;;;;;;;7.43;4.53;;;;;;;17.95;70.98;100649.34;5057184;28;20214;-80
2023/10/11 05:32:19;;;;;;;5.70;4.13;;;;;;;17.98;71.78;100632.50;5058034;28;20662;-80
2023/10/11 05:34:50;;;;;;;5.90;3.87;;;;;;;17.94;71.28;100609.78;5056720;28;20208;-80
2023/10/11 05:50:58;;;;;;;4.67;3.87;;;;;;;17.97;68.54;100695.03;5057257;28;20271;-80
2023/10/11 05:53:28;;;;;;;8.67;3.97;;;;;;;18.04;68.05;100717.59;5059032;28;20582;-79
2023/10/11 05:55:54;;;;;;;5.03;3.93;;;;;;;18.01;69.51;100701.88;5057487;28;20212;-79
2023/10/11 05:58:21;;;;;;;6.57;3.90;;;;;;;18.09;68.37;100682.19;5054986;28;20756;-81
2023/10/11 06:00:53;;;;;;;5.37;4.53;;;;;;;18.10;68.74;100686.56;5054250;28;20206;-83
2023/10/11 06:03:29;;;;;;;5.40;4.30;;;;;;;18.18;67.11;100710.84;5057466;28;20461;-83
2023/10/11 06:06:23;;;;;;;5.33;3.73;;;;;;;18.22;67.41;100713.25;5055760;28;20406;-82
2023/10/11 06:08:51;;;;;;;4.10;3.70;;;;;;;18.27;67.39;100726.25;5055029;28;20210;-83
2023/10/11 06:11:18;;;;;;;6.00;4.10;;;;;;;18.21;66.51;100743.25;5054938;28;20225;-83
2023/10/11 06:13:45;;;;;;;5.90;4.23;;;;;;;18.32;66.96;100766.53;5055205;28;20209;-84
2023/10/11 06:16:13;;;;;;;6.50;3.80;;;;;;;18.40;66.38;100767.03;5056568;28;20212;-83
2023/10/11 06:18:42;;;;;;;3.97;3.43;;;;;;;18.35;66.32;100779.59;5056723;28;20210;-84
2023/10/11 06:21:24;;;;;;;5.97;4.57;;;;;;;18.41;65.73;100779.34;5056028;28;20766;-81
2023/10/11 06:23:53;;;;;;;5.90;4.07;;;;;;;18.40;65.53;100782.91;5056061;28;20707;-83
2023/10/11 06:29:07;;;;;;;5.37;4.33;;;;;;;18.37;65.64;100780.38;5056342;28;20204;-83
2023/10/11 06:31:39;;;;;;;4.77;3.90;;;;;;;18.37;65.78;100777.75;5058710;28;20258;-84
2023/10/11 06:34:15;;;;;;;5.30;3.80;;;;;;;18.36;66.43;100762.84;5055884;28;20197;-83
2023/10/11 06:36:48;;;;;;;10.83;3.80;;;;;;;18.35;66.68;100753.16;5056473;28;20201;-83
2023/10/11 06:42:21;;;;;;;4.10;3.63;;;;;;;18.47;66.48;100743.81;5015630;28;20272;-83
2023/10/11 06:45:12;;;;;;;6.37;3.83;;;;;;;18.37;66.98;100724.88;5019135;28;20269;-85
2023/10/11 06:51:13;;;;;;;5.23;4.30;;;;;;;18.33;65.80;100735.69;5014906;28;20232;-83
2023/10/11 06:53:46;;;;;;;6.17;3.60;;;;;;;18.37;66.73;100734.59;5061560;28;20240;-81
2023/10/11 06:56:16;;;;;;;7.33;3.73;;;;;;;18.45;66.36;100733.34;5053237;28;20738;-82
2023/10/11 06:58:45;;;;;;;6.23;3.83;;;;;;;18.47;66.05;100757.03;5059560;28;20638;-83
2023/10/11 07:01:14;;;;;;;8.30;4.00;;;;;;;18.52;65.84;100759.47;5060324;28;20569;-83
2023/10/11 07:03:41;;;;;;;4.30;3.90;;;;;;;18.44;66.34;100757.19;5059253;28;20213;-82
2023/10/11 07:06:11;;;;;;;6.57;3.80;;;;;;;18.50;66.75;100737.56;5051385;28;20217;-83
2023/10/11 07:08:48;;;;;;;4.57;3.90;;;;;;;18.54;66.35;100716.16;5060088;28;20630;-83
2023/10/11 07:11:40;;;;;;;4.37;4.00;;;;;;;18.58;66.67;100711.59;5053211;28;20244;-83
2023/10/11 07:14:15;;;;;;;5.40;3.87;;;;;;;18.54;65.43;100725.91;5059155;28;20205;-83
2023/10/11 07:16:44;;;;;;;4.43;4.00;;;;;;;18.61;66.57;100712.31;5060029;28;20266;-82
2023/10/11 07:19:11;;;;;;;5.47;4.00;;;;;;;18.58;66.29;100715.09;5050887;28;20608;-82
2023/10/11 07:21:52;;;;;;;5.50;4.37;;;;;;;18.52;66.66;100715.38;5058402;28;20226;-82
2023/10/11 07:24:33;;;;;;;4.63;3.50;;;;;;;18.42;65.95;100735.25;5052021;28;20233;-81
2023/10/11 07:27:08;;;;;;;7.80;4.23;;;;;;;18.54;65.66;100733.81;5058984;28;20289;-83
2023/10/11 07:29:36;;;;;;;5.00;3.60;;;;;;;18.50;64.64;100743.69;5058317;28;20230;-83
2023/10/11 07:32:02;;;;;;;6.23;4.20;;;;;;;18.51;65.44;100739.25;5058734;28;20849;-81
2023/10/11 07:34:29;;;;;;;9.77;4.23;;;;;;;18.55;64.06;100756.69;5058029;28;20202;-80
2023/10/11 07:36:56;;;;;;;6.23;4.03;;;;;;;18.64;65.39;100765.03;5058081;28;20209;-80
2023/10/11 07:39:26;;;;;;;6.27;4.03;;;;;;;18.71;65.08;100754.16;5061646;28;20218;-82
2023/10/11 07:44:37;;;;;;;5.63;3.77;;;;;;;18.76;65.34;100768.03;5060461;28;20229;-84
2023/10/11 07:47:07;;;;;;;6.10;3.90;;;;;;;18.73;64.71;100765.53;5060618;28;20218;-84
2023/10/11 07:49:38;;;;;;;6.03;3.90;;;;;;;18.71;65.18;100783.25;5060881;28;20260;-84
2023/10/11 07:52:08;;;;;;;7.97;4.03;;;;;;;18.78;65.53;100782.03;5061036;28;20221;-83
2023/10/11 07:54:35;;;;;;;4.37;3.80;;;;;;;18.79;64.32;100789.03;5060496;28;20199;-84
2023/10/11 07:57:04;;;;;;;5.10;3.80;;;;;;;18.80;64.72;100777.56;5061042;28;20212;-84
2023/10/11 07:59:31;;;;;;;5.67;4.77;;;;;;;18.87;65.00;100762.25;5062437;28;20216;-84
2023/10/11 08:02:07;;;;;;;6.03;3.53;;;;;;;18.83;62.79;100782.72;5061053;28;20222;-83
2023/10/11 08:04:35;;;;;;;4.83;4.20;;;;;;;18.82;62.06;100820.66;5061677;28;20274;-82
2023/10/11 08:07:04;;;;;;;8.17;5.00;;;;;;;19.01;64.53;100828.59;5062499;28;20644;-83
2023/10/11 08:09:45;;;;;;;4.97;4.13;;;;;;;19.04;62.43;100820.50;5063510;28;20228;-83
2023/10/11 08:12:13;;;;;;;5.10;4.30;;;;;;;19.07;63.01;100845.94;5064332;28;20229;-83
2023/10/11 08:14:49;;;;;;;8.67;4.00;;;;;;;19.14;62.40;100834.16;5059165;28;20687;-85
2023/10/11 08:17:19;;;;;;;3.97;3.40;;;;;;;19.15;61.47;100859.69;5058567;28;20722;-82
2023/10/11 08:19:49;;;;;;;5.73;3.43;;;;;;;19.16;61.39;100850.81;5050090;28;20238;-82
2023/10/11 08:22:22;;;;;;;6.27;3.77;;;;;;;19.24;61.03;100864.53;5058574;28;20229;-85
2023/10/11 08:24:49;;;;;;;5.83;3.73;;;;;;;19.32;61.64;100877.41;5051156;28;20321;-84
2023/10/11 08:27:23;;;;;;;6.00;3.83;;;;;;;19.35;60.79;100888.69;5053286;28;20204;-83
2023/10/11 08:29:54;;;;;;;4.90;3.63;;;;;;;19.40;61.66;100872.56;5053519;28;20668;-81
2023/10/11 08:32:26;;;;;;;6.13;3.97;;;;;;;19.43;60.32;100875.94;5056941;28;20232;-84
2023/10/11 08:35:04;;;;;;;7.40;4.13;;;;;;;19.45;62.25;100844.94;5058641;28;20211;-85
2023/10/11 08:37:32;;;;;;;4.43;4.00;;;;;;;19.52;61.10;100858.72;5061432;28;20206;-84
2023/10/11 08:39:58;;;;;;;6.77;4.07;;;;;;;19.60;61.61;100847.75;5066435;28;20271;-84
2023/10/11 08:42:30;;;;;;;8.80;4.50;;;;;;;19.67;61.84;100832.44;5071625;28;20231;-82
2023/10/11 08:45:00;;;;;;;5.43;3.73;;;;;;;19.72;61.63;100841.91;5067941;28;20246;-82
2023/10/11 08:47:29;;;;;;;5.50;4.10;;;;;;;19.79;61.60;100845.09;5071233;28;20233;-85
2023/10/11 08:49:56;;;;;;;5.30;3.90;;;;;;;19.84;61.39;100854.50;5069381;28;20218;-84
2023/10/11 08:52:24;;;;;;;4.80;4.33;;;;;;;19.89;59.83;100879.91;5061266;28;20669;-83
2023/10/11 08:54:51;;;;;;;5.37;3.27;;;;;;;19.92;59.55;100891.22;5061121;28;20202;-85
2023/10/11 08:57:23;;;;;;;5.03;4.33;;;;;;;19.97;59.89;100880.38;5061556;28;20702;-84
2023/10/11 08:59:50;;;;;;;4.53;3.67;;;;;;;19.94;61.20;100869.94;5059375;28;20207;-84
2023/10/11 09:02:17;;;;;;;4.57;3.57;;;;;;;20.05;60.34;100883.50;5049467;28;20218;-85
2023/10/11 09:05:03;;;;;;;6.07;4.37;;;;;;;20.10;59.31;100876.19;5056332;28;20238;-81
2023/10/11 09:07:45;;;;;;;3.67;3.37;;;;;;;20.11;59.26;100892.94;5057721;28;20690;-84
2023/10/11 09:10:25;;;;;;;5.80;3.70;;;;;;;20.22;59.10;100893.22;5057355;28;20212;-83
2023/10/11 09:12:56;;;;;;;4.03;3.17;;;;;;;20.21;59.11;100892.34;5056521;28;20653;-82
2023/10/11 09:15:54;;;;;;;6.53;3.40;;;;;;;20.26;59.30;100908.03;5058292;28;20288;-85
2023/10/11 09:18:24;;;;;;;7.07;3.60;;;;;;;20.26;59.06;100912.47;5058658;28;20219;-84
2023/10/11 09:21:08;;;;;;;6.53;3.23;;;;;;;20.27;58.98;100907.09;5059083;28;20211;-84
2023/10/11 09:23:39;;;;;;;5.17;3.47;;;;;;;20.28;58.90;100910.59;5056060;28;20242;-82
2023/10/11 09:26:06;;;;;;;7.13;3.30;;;;;;;20.32;58.67;100904.22;5057725;28;20232;-85
2023/10/11 09:28:34;;;;;;;4.03;3.33;;;;;;;20.37;59.24;100881.81;5057598;28;20276;-83
2023/10/11 09:31:11;;;;;;;8.47;3.93;;;;;;;20.33;57.94;100900.63;5058838;28;20273;-84
2023/10/11 09:33:40;;;;;;;7.43;3.63;;;;;;;20.42;59.43;100884.22;5057563;28;20214;-85
2023/10/11 09:36:09;;;;;;;6.60;3.47;;;;;;;20.42;58.57;100902.78;5059769;28;20232;-85
2023/10/11 09:38:40;;;;;;;6.27;3.33;;;;;;;20.43;58.79;100896.53;5059732;28;20230;-85
2023/10/11 09:41:07;;;;;;;12.33;4.17;;;;;;;20.55;58.70;100887.91;5065295;28;20232;-88
2023/10/11 09:43:40;;;;;;;6.10;3.57;;;;;;;20.57;59.37;100883.41;5075916;28;20251;-87
2023/10/11 09:46:11;;;;;;;5.70;3.60;;;;;;;20.59;59.13;100875.38;5077367;28;20271;-85
2023/10/11 09:48:38;;;;;;;6.03;3.43;;;;;;;20.56;58.83;100887.00;5062762;28;20264;-83
2023/10/11 09:51:08;;;;;;;5.03;3.50;;;;;;;20.61;59.13;100889.44;5057087;28;20235;-84
2023/10/11 09:53:41;;;;;;;7.17;3.90;;;;;;;20.63;59.87;100861.91;5061955;28;20266;-83
2023/10/11 09:56:15;;;;;;;8.27;3.60;;;;;;;20.65;60.76;100826.47;5059864;28;20215;-84
2023/10/11 09:58:49;;;;;;;5.63;3.53;;;;;;;20.64;59.50;100857.44;5057900;28;20219;-84
2023/10/11 10:01:21;;;;;;;8.87;3.80;;;;;;;20.55;58.16;100866.69;5057178;28;21540;-83
2023/10/11 10:03:52;;;;;;;6.40;4.07;;;;;;;20.54;59.17;100891.53;5054320;28;20212;-82
2023/10/11 10:06:21;;;;;;;4.33;3.40;;;;;;;20.62;59.27;100873.44;5049604;28;20228;-84
2023/10/11 10:09:23;;;;;;;4.97;3.37;;;;;;;20.49;58.12;100879.44;5057545;28;20273;-85
2023/10/11 10:12:20;;;;;;;4.00;3.43;;;;;;;20.56;59.58;100849.88;5054280;28;20231;-85
2023/10/11 10:14:50;;;;;;;3.60;3.30;;;;;;;20.56;59.71;100833.09;5058717;28;20232;-86
2023/10/11 10:17:18;;;;;;;5.67;3.73;;;;;;;20.51;59.18;100861.66;5056863;28;20295;-83
2023/10/11 10:19:46;;;;;;;8.23;3.93;;;;;;;20.62;60.89;100838.94;5058803;28;20227;-84
2023/10/11 10:22:16;;;;;;;4.50;3.53;;;;;;;20.70;59.93;100819.13;5059381;28;20219;-82
2023/10/11 10:24:43;;;;;;;6.67;3.70;;;;;;;20.81;61.46;100795.47;5059135;28;20845;-83
2023/10/11 10:27:45;;;;;;;6.43;4.13;;;;;;;20.90;61.33;100799.44;5063778;28;20212;-85
2023/10/11 10:30:16;;;;;;;6.47;4.33;;;;;;;21.01;60.14;100791.72;5065936;28;20237;-83
2023/10/11 10:33:18;;;;;;;7.07;3.90;;;;;;;21.07;60.77;100799.34;5066784;28;20225;-83
2023/10/11 10:35:45;;;;;;;4.17;3.77;;;;;;;21.12;59.90;100831.75;5059804;28;20208;-83
2023/10/11 10:38:12;;;;;;;4.10;3.63;;;;;;;21.11;59.21;100845.13;5061317;28;20237;-82
2023/10/11 10:40:42;;;;;;;7.77;4.10;;;;;;;21.27;59.87;100851.28;5060642;28;20205;-83
2023/10/11 10:43:19;;;;;;;4.03;3.20;;;;;;;21.31;59.91;100844.00;5062361;28;20291;-83
2023/10/11 10:45:48;;;;;;;4.77;3.40;;;;;;;21.39;60.97;100831.13;5062316;28;20226;-83
2023/10/11 10:48:18;;;;;;;4.80;3.90;;;;;;;21.49;60.51;100827.03;5062477;28;20215;-82
2023/10/11 10:50:48;;;;;;;4.53;3.50;;;;;;;21.49;59.14;100840.31;5062808;28;20270;-83
2023/10/11 10:53:16;;;;;;;3.80;3.17;;;;;;;21.53;58.62;100856.94;5061107;28;20583;-83
2023/10/11 10:55:43;;;;;;;6.03;3.57;;;;;;;21.61;60.23;100878.59;5059260;28;20284;-82
2023/10/11 10:58:16;;;;;;;5.93;3.53;;;;;;;21.60;58.93;100863.59;5058106;28;20246;-83
2023/10/11 11:00:43;;;;;;;5.40;3.57;;;;;;;21.82;60.07;100857.84;5059463;28;20211;-82
2023/10/11 11:03:20;;;;;;;4.57;3.20;;;;;;;21.75;58.76;100844.09;5058874;28;20554;-82
2023/10/11 11:05:56;;;;;;;7.10;3.67;;;;;;;21.87;58.34;100870.91;5061863;28;20226;-81
2023/10/11 11:08:27;;;;;;;5.80;3.73;;;;;;;21.95;57.85;100887.25;5061001;28;20239;-81
2023/10/11 11:10:59;;;;;;;7.13;3.80;;;;;;;22.00;58.74;100904.63;5068286;28;20206;-80
2023/10/11 11:13:29;;;;;;;4.70;4.00;;;;;;;22.06;57.96;100897.22;5058300;28;20738;-81
2023/10/11 11:15:55;;;;;;;4.17;3.47;;;;;;;22.00;55.47;100898.44;5059352;28;20206;-80
2023/10/11 11:18:32;;;;;;;6.83;4.07;;;;;;;22.21;57.82;100904.28;5059334;28;20205;-81
2023/10/11 11:21:17;;;;;;;4.97;3.43;;;;;;;22.21;56.62;100918.44;5059298;28;20220;-81
2023/10/11 11:23:45;;;;;;;6.93;3.50;;;;;;;22.32;55.78;100923.16;5059978;28;20205;-81
2023/10/11 11:26:15;;;;;;;9.17;4.20;;;;;;;22.40;56.89;100920.88;5058802;28;20270;-81
2023/10/11 11:28:43;;;;;;;6.73;3.60;;;;;;;22.49;56.00;100921.25;5058635;28;20869;-81
2023/10/11 11:31:13;;;;;;;4.67;3.30;;;;;;;22.54;54.81;100965.25;5057975;28;20233;-81
2023/10/11 11:34:05;;;;;;;6.57;3.93;;;;;;;22.64;54.79;100962.91;5059601;28;20215;-81
2023/10/11 11:36:31;;;;;;;7.87;3.50;;;;;;;22.63;55.25;100968.31;5059310;28;20205;-81
2023/10/11 11:39:17;;;;;;;7.33;3.50;;;;;;;22.72;54.27;100976.59;5058852;28;20204;-80
2023/10/11 11:41:47;;;;;;;7.33;3.90;;;;;;;22.84;54.47;100990.09;5052711;28;20228;-81
2023/10/11 11:44:20;;;;;;;8.33;3.53;;;;;;;22.96;55.47;100971.56;5058256;28;20299;-81
2023/10/11 11:46:48;;;;;;;4.43;3.43;;;;;;;22.99;55.33;100955.41;5057998;28;20221;-81
2023/10/11 11:49:16;;;;;;;4.67;3.37;;;;;;;23.29;53.96;100980.19;5058496;28;20296;-81
2023/10/11 11:51:42;;;;;;;6.50;3.43;;;;;;;23.40;52.88;100988.38;5057956;28;20723;-81
2023/10/11 11:54:16;;;;;;;7.77;3.80;;;;;;;23.67;52.80;101022.22;5057926;28;20208;-81
2023/10/11 11:56:45;;;;;;;6.87;3.83;;;;;;;23.90;52.61;101044.72;5057494;28;20754;-81
2023/10/11 11:59:17;;;;;;;17.27;4.00;;;;;;;24.03;50.78;101052.78;5058507;28;20204;-81
2023/10/11 12:01:45;;;;;;;6.93;3.90;;;;;;;24.23;50.83;101076.31;5058943;28;20217;-81
2023/10/11 12:04:12;;;;;;;4.20;3.13;;;;;;;24.22;50.98;101087.09;5059385;28;20197;-81
2023/10/11 12:06:37;;;;;;;11.10;4.03;;;;;;;24.17;50.21;101108.75;5059238;28;20579;-81
2023/10/11 12:09:05;;;;;;;5.23;3.50;;;;;;;24.46;50.31;101121.97;5064702;28;20732;-81